sensor_id;sensor_type;location;lat;lon;timestamp;P1;durP1;ratioP1;P2;durP2;ratioP2
59127;SDS011;44912;52.754;5.994;2023-07-30T00:00:24;17.23;;;4.15;;
59127;SDS011;44912;52.754;5.994;2023-07-30T00:02:50;19.95;;;4.80;;
59127;SDS011;44912;52.754;5.994;2023-07-30T00:05:15;18.60;;;4.25;;
59127;SDS011;44912;52.754;5.994;2023-07-30T00:07:44;24.25;;;4.60;;
59127;SDS011;44912;52.754;5.994;2023-07-30T00:10:10;23.25;;;4.72;;
59127;SDS011;44912;52.754;5.994;2023-07-30T00:12:35;18.10;;;4.15;;
59127;SDS011;44912;52.754;5.994;2023-07-30T00:15:03;16.95;;;4.13;;
59127;SDS011;44912;52.754;5.994;2023-07-30T00:17:29;18.40;;;4.22;;
59127;SDS011;44912;52.754;5.994;2023-07-30T00:19:55;17.77;;;4.15;;
59127;SDS011;44912;52.754;5.994;2023-07-30T00:22:21;18.30;;;4.78;;
59127;SDS011;44912;52.754;5.994;2023-07-30T00:24:46;17.80;;;4.20;;
59127;SDS011;44912;52.754;5.994;2023-07-30T00:27:18;19.33;;;4.35;;
59127;SDS011;44912;52.754;5.994;2023-07-30T00:29:44;20.83;;;4.28;;
59127;SDS011;44912;52.754;5.994;2023-07-30T00:32:09;21.42;;;4.53;;
59127;SDS011;44912;52.754;5.994;2023-07-30T00:34:36;17.13;;;4.00;;
59127;SDS011;44912;52.754;5.994;2023-07-30T00:37:01;18.25;;;4.15;;
59127;SDS011;44912;52.754;5.994;2023-07-30T00:39:32;18.50;;;4.35;;
59127;SDS011;44912;52.754;5.994;2023-07-30T00:41:58;15.30;;;3.67;;
59127;SDS011;44912;52.754;5.994;2023-07-30T00:44:23;21.23;;;4.57;;
59127;SDS011;44912;52.754;5.994;2023-07-30T00:46:49;17.42;;;3.97;;
59127;SDS011;44912;52.754;5.994;2023-07-30T00:49:15;17.17;;;4.20;;
59127;SDS011;44912;52.754;5.994;2023-07-30T00:51:41;17.15;;;3.70;;
59127;SDS011;44912;52.754;5.994;2023-07-30T00:54:10;16.30;;;4.05;;
59127;SDS011;44912;52.754;5.994;2023-07-30T00:56:36;17.40;;;4.03;;
59127;SDS011;44912;52.754;5.994;2023-07-30T00:59:02;17.25;;;3.58;;
59127;SDS011;44912;52.754;5.994;2023-07-30T01:01:29;18.23;;;3.92;;
59127;SDS011;44912;52.754;5.994;2023-07-30T01:03:58;18.88;;;4.35;;
59127;SDS011;44912;52.754;5.994;2023-07-30T01:06:23;13.40;;;3.50;;
59127;SDS011;44912;52.754;5.994;2023-07-30T01:08:49;18.38;;;4.13;;
59127;SDS011;44912;52.754;5.994;2023-07-30T01:11:15;21.65;;;4.40;;
59127;SDS011;44912;52.754;5.994;2023-07-30T01:13:41;20.23;;;4.38;;
59127;SDS011;44912;52.754;5.994;2023-07-30T01:16:07;14.13;;;3.85;;
59127;SDS011;44912;52.754;5.994;2023-07-30T01:18:33;18.13;;;3.92;;
59127;SDS011;44912;52.754;5.994;2023-07-30T01:20:59;16.33;;;3.80;;
59127;SDS011;44912;52.754;5.994;2023-07-30T01:23:28;16.33;;;3.90;;
59127;SDS011;44912;52.754;5.994;2023-07-30T01:26:12;18.90;;;3.80;;
59127;SDS011;44912;52.754;5.994;2023-07-30T01:28:48;17.38;;;4.57;;
59127;SDS011;44912;52.754;5.994;2023-07-30T01:31:16;17.85;;;4.10;;
59127;SDS011;44912;52.754;5.994;2023-07-30T01:33:45;19.45;;;4.60;;
59127;SDS011;44912;52.754;5.994;2023-07-30T01:36:15;17.55;;;4.10;;
59127;SDS011;44912;52.754;5.994;2023-07-30T01:38:41;15.30;;;4.03;;
59127;SDS011;44912;52.754;5.994;2023-07-30T01:41:10;22.30;;;4.18;;
59127;SDS011;44912;52.754;5.994;2023-07-30T01:43:36;17.80;;;4.20;;
59127;SDS011;44912;52.754;5.994;2023-07-30T01:46:01;22.55;;;4.63;;
59127;SDS011;44912;52.754;5.994;2023-07-30T01:48:27;20.02;;;4.50;;
59127;SDS011;44912;52.754;5.994;2023-07-30T01:50:52;16.83;;;3.88;;
59127;SDS011;44912;52.754;5.994;2023-07-30T01:53:18;14.35;;;4.05;;
59127;SDS011;44912;52.754;5.994;2023-07-30T01:55:43;21.40;;;4.47;;
59127;SDS011;44912;52.754;5.994;2023-07-30T01:58:11;18.40;;;3.90;;
59127;SDS011;44912;52.754;5.994;2023-07-30T02:00:38;23.63;;;4.40;;
59127;SDS011;44912;52.754;5.994;2023-07-30T02:03:04;18.05;;;3.78;;
59127;SDS011;44912;52.754;5.994;2023-07-30T02:05:29;19.17;;;4.30;;
59127;SDS011;44912;52.754;5.994;2023-07-30T02:07:55;18.30;;;3.90;;
59127;SDS011;44912;52.754;5.994;2023-07-30T02:10:24;18.02;;;3.63;;
59127;SDS011;44912;52.754;5.994;2023-07-30T02:12:50;24.50;;;4.05;;
59127;SDS011;44912;52.754;5.994;2023-07-30T02:15:16;21.38;;;4.10;;
59127;SDS011;44912;52.754;5.994;2023-07-30T02:17:41;14.45;;;4.05;;
59127;SDS011;44912;52.754;5.994;2023-07-30T02:20:08;19.17;;;4.63;;
59127;SDS011;44912;52.754;5.994;2023-07-30T02:22:37;16.20;;;3.80;;
59127;SDS011;44912;52.754;5.994;2023-07-30T02:25:08;20.35;;;4.07;;
59127;SDS011;44912;52.754;5.994;2023-07-30T02:27:34;17.65;;;4.15;;
59127;SDS011;44912;52.754;5.994;2023-07-30T02:29:59;16.15;;;3.88;;
59127;SDS011;44912;52.754;5.994;2023-07-30T02:32:25;17.70;;;3.90;;
59127;SDS011;44912;52.754;5.994;2023-07-30T02:34:50;20.30;;;3.65;;
59127;SDS011;44912;52.754;5.994;2023-07-30T02:37:16;22.20;;;4.72;;
59127;SDS011;44912;52.754;5.994;2023-07-30T02:39:41;12.68;;;3.42;;
59127;SDS011;44912;52.754;5.994;2023-07-30T02:42:07;19.35;;;4.55;;
59127;SDS011;44912;52.754;5.994;2023-07-30T02:44:32;17.05;;;3.92;;
59127;SDS011;44912;52.754;5.994;2023-07-30T02:46:58;21.27;;;4.20;;
59127;SDS011;44912;52.754;5.994;2023-07-30T02:49:23;20.00;;;4.22;;
59127;SDS011;44912;52.754;5.994;2023-07-30T02:51:49;15.70;;;4.00;;
59127;SDS011;44912;52.754;5.994;2023-07-30T02:54:15;16.33;;;4.35;;
59127;SDS011;44912;52.754;5.994;2023-07-30T02:56:45;17.65;;;3.72;;
59127;SDS011;44912;52.754;5.994;2023-07-30T02:59:11;19.83;;;3.90;;
59127;SDS011;44912;52.754;5.994;2023-07-30T03:01:36;16.70;;;4.00;;
59127;SDS011;44912;52.754;5.994;2023-07-30T03:04:03;16.05;;;3.97;;
59127;SDS011;44912;52.754;5.994;2023-07-30T03:06:29;16.90;;;4.45;;
59127;SDS011;44912;52.754;5.994;2023-07-30T03:08:54;22.30;;;4.72;;
59127;SDS011;44912;52.754;5.994;2023-07-30T03:11:21;15.70;;;3.63;;
59127;SDS011;44912;52.754;5.994;2023-07-30T03:13:47;21.27;;;4.85;;
59127;SDS011;44912;52.754;5.994;2023-07-30T03:16:12;21.95;;;4.20;;
59127;SDS011;44912;52.754;5.994;2023-07-30T03:18:39;17.50;;;3.80;;
59127;SDS011;44912;52.754;5.994;2023-07-30T03:21:05;17.85;;;3.90;;
59127;SDS011;44912;52.754;5.994;2023-07-30T03:23:36;13.55;;;3.53;;
59127;SDS011;44912;52.754;5.994;2023-07-30T03:26:02;19.55;;;4.20;;
59127;SDS011;44912;52.754;5.994;2023-07-30T03:28:27;18.85;;;4.05;;
59127;SDS011;44912;52.754;5.994;2023-07-30T03:30:53;14.93;;;4.15;;
59127;SDS011;44912;52.754;5.994;2023-07-30T03:33:19;17.40;;;3.63;;
59127;SDS011;44912;52.754;5.994;2023-07-30T03:35:45;16.33;;;4.15;;
59127;SDS011;44912;52.754;5.994;2023-07-30T03:38:11;18.77;;;4.05;;
59127;SDS011;44912;52.754;5.994;2023-07-30T03:40:42;16.15;;;4.22;;
59127;SDS011;44912;52.754;5.994;2023-07-30T03:43:08;15.98;;;3.75;;
59127;SDS011;44912;52.754;5.994;2023-07-30T03:45:34;16.45;;;3.72;;
59127;SDS011;44912;52.754;5.994;2023-07-30T03:47:59;16.40;;;3.83;;
59127;SDS011;44912;52.754;5.994;2023-07-30T03:50:25;18.98;;;4.82;;
59127;SDS011;44912;52.754;5.994;2023-07-30T03:52:50;17.40;;;3.90;;
59127;SDS011;44912;52.754;5.994;2023-07-30T03:55:16;18.55;;;3.85;;
59127;SDS011;44912;52.754;5.994;2023-07-30T03:57:41;16.20;;;4.18;;
59127;SDS011;44912;52.754;5.994;2023-07-30T04:00:07;19.70;;;4.53;;
59127;SDS011;44912;52.754;5.994;2023-07-30T04:02:32;16.17;;;4.50;;
59127;SDS011;44912;52.754;5.994;2023-07-30T04:04:58;20.38;;;4.25;;
59127;SDS011;44912;52.754;5.994;2023-07-30T04:07:23;17.77;;;4.15;;
59127;SDS011;44912;52.754;5.994;2023-07-30T04:09:49;14.30;;;3.35;;
59127;SDS011;44912;52.754;5.994;2023-07-30T04:12:14;15.32;;;3.97;;
59127;SDS011;44912;52.754;5.994;2023-07-30T04:14:40;19.15;;;4.28;;
59127;SDS011;44912;52.754;5.994;2023-07-30T04:17:06;19.90;;;3.92;;
59127;SDS011;44912;52.754;5.994;2023-07-30T04:19:31;17.83;;;4.38;;
59127;SDS011;44912;52.754;5.994;2023-07-30T04:21:57;18.60;;;3.95;;
59127;SDS011;44912;52.754;5.994;2023-07-30T04:24:22;21.30;;;4.45;;
59127;SDS011;44912;52.754;5.994;2023-07-30T04:26:48;19.85;;;4.18;;
59127;SDS011;44912;52.754;5.994;2023-07-30T04:29:14;21.52;;;3.92;;
59127;SDS011;44912;52.754;5.994;2023-07-30T04:31:41;16.27;;;4.00;;
59127;SDS011;44912;52.754;5.994;2023-07-30T04:34:06;15.93;;;4.22;;
59127;SDS011;44912;52.754;5.994;2023-07-30T04:36:32;17.95;;;4.03;;
59127;SDS011;44912;52.754;5.994;2023-07-30T04:38:58;23.83;;;4.93;;
59127;SDS011;44912;52.754;5.994;2023-07-30T04:41:23;18.80;;;4.45;;
59127;SDS011;44912;52.754;5.994;2023-07-30T04:43:49;16.13;;;4.10;;
59127;SDS011;44912;52.754;5.994;2023-07-30T04:46:15;20.10;;;3.97;;
59127;SDS011;44912;52.754;5.994;2023-07-30T04:48:40;20.02;;;4.20;;
59127;SDS011;44912;52.754;5.994;2023-07-30T04:51:06;18.23;;;4.03;;
59127;SDS011;44912;52.754;5.994;2023-07-30T04:53:31;16.15;;;3.78;;
59127;SDS011;44912;52.754;5.994;2023-07-30T04:55:57;13.95;;;3.42;;
59127;SDS011;44912;52.754;5.994;2023-07-30T04:59:24;17.08;;;3.95;;
59127;SDS011;44912;52.754;5.994;2023-07-30T05:01:37;19.42;;;4.38;;
59127;SDS011;44912;52.754;5.994;2023-07-30T05:07:57;16.35;;;3.75;;
59127;SDS011;44912;52.754;5.994;2023-07-30T05:10:23;19.67;;;4.45;;
59127;SDS011;44912;52.754;5.994;2023-07-30T05:12:52;17.52;;;3.90;;
59127;SDS011;44912;52.754;5.994;2023-07-30T05:15:18;15.82;;;3.70;;
59127;SDS011;44912;52.754;5.994;2023-07-30T05:17:44;17.05;;;4.22;;
59127;SDS011;44912;52.754;5.994;2023-07-30T05:20:09;18.20;;;3.85;;
59127;SDS011;44912;52.754;5.994;2023-07-30T05:25:34;17.80;;;4.05;;
59127;SDS011;44912;52.754;5.994;2023-07-30T05:28:03;23.17;;;4.40;;
59127;SDS011;44912;52.754;5.994;2023-07-30T05:30:31;20.00;;;3.85;;
59127;SDS011;44912;52.754;5.994;2023-07-30T05:32:59;19.92;;;4.50;;
59127;SDS011;44912;52.754;5.994;2023-07-30T05:35:39;23.48;;;5.18;;
59127;SDS011;44912;52.754;5.994;2023-07-30T05:38:19;16.95;;;4.45;;
59127;SDS011;44912;52.754;5.994;2023-07-30T05:40:47;19.27;;;4.38;;
59127;SDS011;44912;52.754;5.994;2023-07-30T05:43:13;20.70;;;4.28;;
59127;SDS011;44912;52.754;5.994;2023-07-30T05:45:39;18.95;;;3.65;;
59127;SDS011;44912;52.754;5.994;2023-07-30T05:48:08;19.33;;;4.30;;
59127;SDS011;44912;52.754;5.994;2023-07-30T05:50:36;15.85;;;3.53;;
59127;SDS011;44912;52.754;5.994;2023-07-30T05:53:02;21.70;;;4.68;;
59127;SDS011;44912;52.754;5.994;2023-07-30T05:55:27;20.20;;;4.45;;
59127;SDS011;44912;52.754;5.994;2023-07-30T05:58:00;19.42;;;3.92;;
59127;SDS011;44912;52.754;5.994;2023-07-30T06:00:42;18.02;;;3.88;;
59127;SDS011;44912;52.754;5.994;2023-07-30T06:03:24;17.00;;;3.92;;
59127;SDS011;44912;52.754;5.994;2023-07-30T06:05:56;15.68;;;3.60;;
59127;SDS011;44912;52.754;5.994;2023-07-30T06:08:30;20.60;;;3.40;;
59127;SDS011;44912;52.754;5.994;2023-07-30T06:11:00;12.65;;;3.78;;
59127;SDS011;44912;52.754;5.994;2023-07-30T06:13:28;16.98;;;3.28;;
59127;SDS011;44912;52.754;5.994;2023-07-30T06:15:54;22.30;;;4.07;;
59127;SDS011;44912;52.754;5.994;2023-07-30T06:18:20;17.83;;;3.75;;
59127;SDS011;44912;52.754;5.994;2023-07-30T06:20:45;15.63;;;3.72;;
59127;SDS011;44912;52.754;5.994;2023-07-30T06:23:11;14.48;;;3.17;;
59127;SDS011;44912;52.754;5.994;2023-07-30T06:25:36;14.35;;;3.25;;
59127;SDS011;44912;52.754;5.994;2023-07-30T06:28:02;21.08;;;3.83;;
59127;SDS011;44912;52.754;5.994;2023-07-30T06:30:28;16.25;;;3.28;;
59127;SDS011;44912;52.754;5.994;2023-07-30T06:32:53;14.98;;;3.42;;
59127;SDS011;44912;52.754;5.994;2023-07-30T06:35:19;16.30;;;3.55;;
59127;SDS011;44912;52.754;5.994;2023-07-30T06:37:44;14.23;;;3.08;;
59127;SDS011;44912;52.754;5.994;2023-07-30T06:40:10;21.70;;;3.45;;
59127;SDS011;44912;52.754;5.994;2023-07-30T06:42:35;15.43;;;3.20;;
59127;SDS011;44912;52.754;5.994;2023-07-30T06:45:01;14.18;;;3.50;;
59127;SDS011;44912;52.754;5.994;2023-07-30T06:47:27;21.33;;;3.20;;
59127;SDS011;44912;52.754;5.994;2023-07-30T06:49:53;16.27;;;3.53;;
59127;SDS011;44912;52.754;5.994;2023-07-30T06:52:18;15.52;;;3.08;;
59127;SDS011;44912;52.754;5.994;2023-07-30T06:54:45;13.88;;;3.40;;
59127;SDS011;44912;52.754;5.994;2023-07-30T06:57:10;15.82;;;3.55;;
59127;SDS011;44912;52.754;5.994;2023-07-30T06:59:36;12.93;;;2.85;;
59127;SDS011;44912;52.754;5.994;2023-07-30T07:02:01;13.32;;;2.72;;
59127;SDS011;44912;52.754;5.994;2023-07-30T07:04:27;12.43;;;3.13;;
59127;SDS011;44912;52.754;5.994;2023-07-30T07:06:53;14.23;;;3.10;;
59127;SDS011;44912;52.754;5.994;2023-07-30T07:09:18;18.88;;;2.95;;
59127;SDS011;44912;52.754;5.994;2023-07-30T07:11:44;16.65;;;3.38;;
59127;SDS011;44912;52.754;5.994;2023-07-30T07:14:09;16.90;;;3.53;;
59127;SDS011;44912;52.754;5.994;2023-07-30T07:16:37;11.73;;;2.65;;
59127;SDS011;44912;52.754;5.994;2023-07-30T07:19:03;15.63;;;2.97;;
59127;SDS011;44912;52.754;5.994;2023-07-30T07:21:28;13.32;;;2.80;;
59127;SDS011;44912;52.754;5.994;2023-07-30T07:23:54;12.60;;;3.55;;
59127;SDS011;44912;52.754;5.994;2023-07-30T07:26:20;14.23;;;2.78;;
59127;SDS011;44912;52.754;5.994;2023-07-30T07:28:46;18.38;;;3.55;;
59127;SDS011;44912;52.754;5.994;2023-07-30T07:31:11;18.60;;;3.08;;
59127;SDS011;44912;52.754;5.994;2023-07-30T07:33:37;15.30;;;3.17;;
59127;SDS011;44912;52.754;5.994;2023-07-30T07:36:06;12.32;;;3.40;;
59127;SDS011;44912;52.754;5.994;2023-07-30T07:38:32;14.02;;;3.35;;
59127;SDS011;44912;52.754;5.994;2023-07-30T07:40:59;21.08;;;3.42;;
59127;SDS011;44912;52.754;5.994;2023-07-30T07:43:24;14.30;;;3.35;;
59127;SDS011;44912;52.754;5.994;2023-07-30T07:45:50;16.92;;;3.22;;
59127;SDS011;44912;52.754;5.994;2023-07-30T07:48:15;17.88;;;3.45;;
59127;SDS011;44912;52.754;5.994;2023-07-30T07:50:41;18.15;;;3.67;;
59127;SDS011;44912;52.754;5.994;2023-07-30T07:53:07;19.08;;;3.83;;
59127;SDS011;44912;52.754;5.994;2023-07-30T07:55:32;16.63;;;3.45;;
59127;SDS011;44912;52.754;5.994;2023-07-30T07:57:58;12.40;;;2.65;;
59127;SDS011;44912;52.754;5.994;2023-07-30T08:00:23;10.10;;;2.28;;
59127;SDS011;44912;52.754;5.994;2023-07-30T08:02:49;11.98;;;2.40;;
59127;SDS011;44912;52.754;5.994;2023-07-30T08:05:14;12.02;;;2.22;;
59127;SDS011;44912;52.754;5.994;2023-07-30T08:07:41;9.30;;;2.50;;
59127;SDS011;44912;52.754;5.994;2023-07-30T08:10:06;8.45;;;2.00;;
59127;SDS011;44912;52.754;5.994;2023-07-30T08:12:32;11.88;;;2.63;;
59127;SDS011;44912;52.754;5.994;2023-07-30T08:14:58;9.60;;;2.20;;
59127;SDS011;44912;52.754;5.994;2023-07-30T08:17:24;12.02;;;2.15;;
59127;SDS011;44912;52.754;5.994;2023-07-30T08:19:50;11.48;;;2.92;;
59127;SDS011;44912;52.754;5.994;2023-07-30T08:22:15;14.05;;;2.63;;
59127;SDS011;44912;52.754;5.994;2023-07-30T08:24:41;13.48;;;3.10;;
59127;SDS011;44912;52.754;5.994;2023-07-30T08:27:06;15.45;;;4.10;;
59127;SDS011;44912;52.754;5.994;2023-07-30T08:29:32;18.23;;;3.97;;
59127;SDS011;44912;52.754;5.994;2023-07-30T08:32:00;14.13;;;3.85;;
59127;SDS011;44912;52.754;5.994;2023-07-30T08:34:26;18.48;;;3.92;;
59127;SDS011;44912;52.754;5.994;2023-07-30T08:36:51;15.18;;;3.50;;
59127;SDS011;44912;52.754;5.994;2023-07-30T08:39:17;15.07;;;3.40;;
59127;SDS011;44912;52.754;5.994;2023-07-30T08:41:43;15.88;;;3.55;;
59127;SDS011;44912;52.754;5.994;2023-07-30T08:44:09;16.45;;;3.22;;
59127;SDS011;44912;52.754;5.994;2023-07-30T08:46:35;14.27;;;3.05;;
59127;SDS011;44912;52.754;5.994;2023-07-30T08:49:00;12.10;;;2.97;;
59127;SDS011;44912;52.754;5.994;2023-07-30T08:51:26;11.93;;;2.75;;
59127;SDS011;44912;52.754;5.994;2023-07-30T08:53:52;16.65;;;3.55;;
59127;SDS011;44912;52.754;5.994;2023-07-30T08:56:18;16.27;;;3.63;;
59127;SDS011;44912;52.754;5.994;2023-07-30T08:58:44;11.05;;;2.90;;
59127;SDS011;44912;52.754;5.994;2023-07-30T09:01:11;7.45;;;1.95;;
59127;SDS011;44912;52.754;5.994;2023-07-30T09:03:38;5.38;;;1.23;;
59127;SDS011;44912;52.754;5.994;2023-07-30T09:06:05;5.63;;;1.52;;
59127;SDS011;44912;52.754;5.994;2023-07-30T09:08:30;5.25;;;1.20;;
59127;SDS011;44912;52.754;5.994;2023-07-30T09:11:09;5.55;;;1.67;;
59127;SDS011;44912;52.754;5.994;2023-07-30T09:13:39;4.53;;;1.50;;
59127;SDS011;44912;52.754;5.994;2023-07-30T09:16:09;8.57;;;1.80;;
59127;SDS011;44912;52.754;5.994;2023-07-30T09:18:43;9.77;;;2.22;;
59127;SDS011;44912;52.754;5.994;2023-07-30T09:21:11;9.15;;;2.30;;
59127;SDS011;44912;52.754;5.994;2023-07-30T09:23:44;6.47;;;1.70;;
59127;SDS011;44912;52.754;5.994;2023-07-30T09:26:10;6.95;;;1.35;;
59127;SDS011;44912;52.754;5.994;2023-07-30T09:28:36;7.95;;;1.80;;
59127;SDS011;44912;52.754;5.994;2023-07-30T09:31:03;8.45;;;1.70;;
59127;SDS011;44912;52.754;5.994;2023-07-30T09:33:30;11.85;;;2.22;;
59127;SDS011;44912;52.754;5.994;2023-07-30T09:35:56;9.30;;;2.00;;
59127;SDS011;44912;52.754;5.994;2023-07-30T09:38:22;6.35;;;1.55;;
59127;SDS011;44912;52.754;5.994;2023-07-30T09:40:47;10.23;;;1.80;;
59127;SDS011;44912;52.754;5.994;2023-07-30T09:43:14;7.03;;;1.85;;
59127;SDS011;44912;52.754;5.994;2023-07-30T09:45:43;9.38;;;1.98;;
59127;SDS011;44912;52.754;5.994;2023-07-30T09:48:11;10.45;;;2.40;;
59127;SDS011;44912;52.754;5.994;2023-07-30T09:50:37;9.20;;;2.45;;
59127;SDS011;44912;52.754;5.994;2023-07-30T09:53:03;9.40;;;2.70;;
59127;SDS011;44912;52.754;5.994;2023-07-30T09:55:29;10.88;;;2.65;;
59127;SDS011;44912;52.754;5.994;2023-07-30T09:57:55;10.35;;;2.55;;
59127;SDS011;44912;52.754;5.994;2023-07-30T10:00:21;9.93;;;2.50;;
59127;SDS011;44912;52.754;5.994;2023-07-30T10:02:46;12.43;;;2.50;;
59127;SDS011;44912;52.754;5.994;2023-07-30T10:05:14;13.80;;;3.03;;
59127;SDS011;44912;52.754;5.994;2023-07-30T10:07:42;10.45;;;2.22;;
59127;SDS011;44912;52.754;5.994;2023-07-30T10:10:14;11.18;;;2.72;;
59127;SDS011;44912;52.754;5.994;2023-07-30T10:12:40;9.65;;;2.40;;
59127;SDS011;44912;52.754;5.994;2023-07-30T10:15:07;10.35;;;2.60;;
59127;SDS011;44912;52.754;5.994;2023-07-30T10:17:33;11.68;;;2.72;;
59127;SDS011;44912;52.754;5.994;2023-07-30T10:20:17;9.13;;;2.40;;
59127;SDS011;44912;52.754;5.994;2023-07-30T10:22:46;11.10;;;2.22;;
59127;SDS011;44912;52.754;5.994;2023-07-30T10:25:12;10.48;;;2.20;;
59127;SDS011;44912;52.754;5.994;2023-07-30T10:27:39;12.00;;;2.63;;
59127;SDS011;44912;52.754;5.994;2023-07-30T10:32:38;9.50;;;2.25;;
59127;SDS011;44912;52.754;5.994;2023-07-30T10:35:43;8.65;;;2.45;;
59127;SDS011;44912;52.754;5.994;2023-07-30T10:38:21;9.63;;;1.90;;
59127;SDS011;44912;52.754;5.994;2023-07-30T10:43:27;10.90;;;2.35;;
59127;SDS011;44912;52.754;5.994;2023-07-30T10:45:53;11.65;;;2.50;;
59127;SDS011;44912;52.754;5.994;2023-07-30T10:48:18;9.93;;;2.15;;
59127;SDS011;44912;52.754;5.994;2023-07-30T10:50:54;6.82;;;2.10;;
59127;SDS011;44912;52.754;5.994;2023-07-30T10:53:19;11.75;;;2.20;;
59127;SDS011;44912;52.754;5.994;2023-07-30T10:55:45;11.05;;;1.90;;
59127;SDS011;44912;52.754;5.994;2023-07-30T10:58:10;14.45;;;2.72;;
59127;SDS011;44912;52.754;5.994;2023-07-30T11:00:36;8.80;;;1.88;;
59127;SDS011;44912;52.754;5.994;2023-07-30T11:03:02;9.50;;;1.98;;
59127;SDS011;44912;52.754;5.994;2023-07-30T11:05:28;12.23;;;2.28;;
59127;SDS011;44912;52.754;5.994;2023-07-30T11:07:55;7.38;;;1.85;;
59127;SDS011;44912;52.754;5.994;2023-07-30T11:10:21;9.15;;;1.95;;
59127;SDS011;44912;52.754;5.994;2023-07-30T11:12:48;12.73;;;2.17;;
59127;SDS011;44912;52.754;5.994;2023-07-30T11:15:14;9.48;;;2.08;;
59127;SDS011;44912;52.754;5.994;2023-07-30T11:17:40;7.05;;;1.67;;
59127;SDS011;44912;52.754;5.994;2023-07-30T11:20:06;11.38;;;2.10;;
59127;SDS011;44912;52.754;5.994;2023-07-30T11:22:34;12.45;;;2.25;;
59127;SDS011;44912;52.754;5.994;2023-07-30T11:25:00;8.60;;;1.95;;
59127;SDS011;44912;52.754;5.994;2023-07-30T11:27:49;9.27;;;2.00;;
59127;SDS011;44912;52.754;5.994;2023-07-30T11:30:15;10.00;;;2.13;;
59127;SDS011;44912;52.754;5.994;2023-07-30T11:32:42;9.75;;;2.10;;
59127;SDS011;44912;52.754;5.994;2023-07-30T11:35:09;7.15;;;2.03;;
59127;SDS011;44912;52.754;5.994;2023-07-30T11:37:36;8.27;;;1.80;;
59127;SDS011;44912;52.754;5.994;2023-07-30T11:40:06;10.65;;;2.10;;
59127;SDS011;44912;52.754;5.994;2023-07-30T11:42:33;10.23;;;2.33;;
59127;SDS011;44912;52.754;5.994;2023-07-30T11:45:05;8.88;;;1.90;;
59127;SDS011;44912;52.754;5.994;2023-07-30T11:47:43;8.23;;;1.92;;
59127;SDS011;44912;52.754;5.994;2023-07-30T11:50:08;13.38;;;2.25;;
59127;SDS011;44912;52.754;5.994;2023-07-30T11:52:34;8.90;;;1.88;;
59127;SDS011;44912;52.754;5.994;2023-07-30T11:55:00;9.05;;;2.05;;
59127;SDS011;44912;52.754;5.994;2023-07-30T11:57:34;9.13;;;1.85;;
59127;SDS011;44912;52.754;5.994;2023-07-30T12:00:00;9.00;;;1.83;;
59127;SDS011;44912;52.754;5.994;2023-07-30T12:02:26;8.10;;;1.90;;
59127;SDS011;44912;52.754;5.994;2023-07-30T12:04:51;8.95;;;1.85;;
59127;SDS011;44912;52.754;5.994;2023-07-30T12:07:23;6.45;;;1.73;;
59127;SDS011;44912;52.754;5.994;2023-07-30T12:09:49;7.68;;;1.65;;
59127;SDS011;44912;52.754;5.994;2023-07-30T12:12:16;8.57;;;1.85;;
59127;SDS011;44912;52.754;5.994;2023-07-30T12:17:13;6.68;;;1.70;;
59127;SDS011;44912;52.754;5.994;2023-07-30T12:19:39;8.85;;;1.88;;
59127;SDS011;44912;52.754;5.994;2023-07-30T12:22:05;10.55;;;2.38;;
59127;SDS011;44912;52.754;5.994;2023-07-30T12:24:31;7.47;;;1.58;;
59127;SDS011;44912;52.754;5.994;2023-07-30T12:26:56;8.95;;;1.85;;
59127;SDS011;44912;52.754;5.994;2023-07-30T12:29:22;11.00;;;2.13;;
59127;SDS011;44912;52.754;5.994;2023-07-30T12:31:47;9.45;;;1.70;;
59127;SDS011;44912;52.754;5.994;2023-07-30T12:34:15;11.05;;;1.65;;
59127;SDS011;44912;52.754;5.994;2023-07-30T12:36:40;8.32;;;2.08;;
59127;SDS011;44912;52.754;5.994;2023-07-30T12:39:06;9.43;;;1.90;;
59127;SDS011;44912;52.754;5.994;2023-07-30T12:41:33;8.63;;;2.10;;
59127;SDS011;44912;52.754;5.994;2023-07-30T12:43:58;11.18;;;1.98;;
59127;SDS011;44912;52.754;5.994;2023-07-30T12:46:24;9.98;;;2.45;;
59127;SDS011;44912;52.754;5.994;2023-07-30T12:48:52;8.25;;;1.63;;
59127;SDS011;44912;52.754;5.994;2023-07-30T12:51:17;7.03;;;1.42;;
59127;SDS011;44912;52.754;5.994;2023-07-30T12:53:43;8.90;;;1.70;;
59127;SDS011;44912;52.754;5.994;2023-07-30T12:56:09;11.18;;;2.00;;
59127;SDS011;44912;52.754;5.994;2023-07-30T12:58:34;14.70;;;1.90;;
59127;SDS011;44912;52.754;5.994;2023-07-30T13:01:00;7.88;;;1.33;;
59127;SDS011;44912;52.754;5.994;2023-07-30T13:03:27;8.27;;;1.80;;
59127;SDS011;44912;52.754;5.994;2023-07-30T13:05:53;6.43;;;1.48;;
59127;SDS011;44912;52.754;5.994;2023-07-30T13:08:18;4.47;;;1.00;;
59127;SDS011;44912;52.754;5.994;2023-07-30T13:10:45;4.80;;;1.27;;
59127;SDS011;44912;52.754;5.994;2023-07-30T13:13:10;5.38;;;1.17;;
59127;SDS011;44912;52.754;5.994;2023-07-30T13:15:36;6.18;;;1.27;;
59127;SDS011;44912;52.754;5.994;2023-07-30T13:18:01;8.75;;;1.40;;
59127;SDS011;44912;52.754;5.994;2023-07-30T13:20:28;8.48;;;1.83;;
59127;SDS011;44912;52.754;5.994;2023-07-30T13:22:54;10.40;;;2.22;;
59127;SDS011;44912;52.754;5.994;2023-07-30T13:25:19;8.32;;;1.67;;
59127;SDS011;44912;52.754;5.994;2023-07-30T13:27:45;7.30;;;1.65;;
59127;SDS011;44912;52.754;5.994;2023-07-30T13:30:11;8.85;;;1.80;;
59127;SDS011;44912;52.754;5.994;2023-07-30T13:32:36;8.48;;;1.58;;
59127;SDS011;44912;52.754;5.994;2023-07-30T13:35:02;7.75;;;2.10;;
59127;SDS011;44912;52.754;5.994;2023-07-30T13:37:27;5.95;;;1.23;;
59127;SDS011;44912;52.754;5.994;2023-07-30T13:39:53;5.10;;;1.38;;
59127;SDS011;44912;52.754;5.994;2023-07-30T13:42:18;6.05;;;1.30;;
59127;SDS011;44912;52.754;5.994;2023-07-30T13:44:44;5.55;;;1.27;;
59127;SDS011;44912;52.754;5.994;2023-07-30T13:47:10;8.15;;;1.45;;
59127;SDS011;44912;52.754;5.994;2023-07-30T13:49:35;7.53;;;1.42;;
59127;SDS011;44912;52.754;5.994;2023-07-30T13:52:01;9.85;;;1.80;;
59127;SDS011;44912;52.754;5.994;2023-07-30T13:54:26;9.27;;;2.00;;
59127;SDS011;44912;52.754;5.994;2023-07-30T13:56:52;9.63;;;1.50;;
59127;SDS011;44912;52.754;5.994;2023-07-30T13:59:17;10.95;;;2.28;;
59127;SDS011;44912;52.754;5.994;2023-07-30T14:01:43;9.80;;;2.10;;
59127;SDS011;44912;52.754;5.994;2023-07-30T14:04:09;9.75;;;1.92;;
59127;SDS011;44912;52.754;5.994;2023-07-30T14:06:34;10.23;;;1.88;;
59127;SDS011;44912;52.754;5.994;2023-07-30T14:09:00;8.40;;;1.70;;
59127;SDS011;44912;52.754;5.994;2023-07-30T14:11:26;7.88;;;1.73;;
59127;SDS011;44912;52.754;5.994;2023-07-30T14:13:52;7.03;;;1.45;;
59127;SDS011;44912;52.754;5.994;2023-07-30T14:16:18;9.13;;;1.25;;
59127;SDS011;44912;52.754;5.994;2023-07-30T14:18:43;4.93;;;1.17;;
59127;SDS011;44912;52.754;5.994;2023-07-30T14:21:09;6.80;;;1.60;;
59127;SDS011;44912;52.754;5.994;2023-07-30T14:23:36;7.47;;;1.77;;
59127;SDS011;44912;52.754;5.994;2023-07-30T14:26:02;9.55;;;1.60;;
59127;SDS011;44912;52.754;5.994;2023-07-30T14:28:28;6.95;;;1.40;;
59127;SDS011;44912;52.754;5.994;2023-07-30T14:30:53;8.07;;;1.50;;
59127;SDS011;44912;52.754;5.994;2023-07-30T14:33:19;5.00;;;0.93;;
59127;SDS011;44912;52.754;5.994;2023-07-30T14:35:44;8.07;;;1.92;;
59127;SDS011;44912;52.754;5.994;2023-07-30T14:38:10;10.60;;;1.52;;
59127;SDS011;44912;52.754;5.994;2023-07-30T14:40:37;7.10;;;1.10;;
59127;SDS011;44912;52.754;5.994;2023-07-30T14:43:03;9.13;;;1.55;;
59127;SDS011;44912;52.754;5.994;2023-07-30T14:45:28;6.97;;;1.48;;
59127;SDS011;44912;52.754;5.994;2023-07-30T14:47:54;7.15;;;1.63;;
59127;SDS011;44912;52.754;5.994;2023-07-30T14:50:19;6.53;;;1.38;;